createdAt,value
2023-03-17T00:01:54.943Z,3.20
2023-03-17T00:04:56.132Z,3.20
2023-03-17T00:08:05.573Z,3.10
2023-03-17T00:11:13.812Z,3.00
2023-03-17T00:14:15.240Z,3.20
2023-03-17T00:17:16.564Z,3.10
2023-03-17T00:20:28.644Z,3.10
2023-03-17T00:23:30.068Z,3.10
2023-03-17T00:26:31.585Z,3.10
2023-03-17T00:29:32.960Z,2.90
2023-03-17T00:32:33.855Z,2.90
2023-03-17T00:35:34.867Z,2.80
2023-03-17T00:38:35.658Z,2.90
2023-03-17T00:41:36.701Z,3.00
2023-03-17T00:44:38.178Z,3.00
2023-03-17T00:47:40.434Z,3.10
2023-03-17T00:50:42.718Z,2.90
2023-03-17T00:53:44.838Z,2.60
2023-03-17T00:56:48.292Z,2.60
2023-03-17T00:59:49.514Z,2.60
2023-03-17T01:02:53.039Z,2.50
2023-03-17T01:05:57.956Z,2.50
2023-03-17T01:08:59.050Z,2.70
2023-03-17T01:12:00.780Z,2.90
2023-03-17T01:15:01.891Z,2.70
2023-03-17T01:18:03.062Z,2.50
2023-03-17T01:21:05.190Z,2.80
2023-03-17T01:24:06.722Z,2.90
2023-03-17T01:27:08.357Z,3.00
2023-03-17T01:30:20.726Z,3.10
2023-03-17T01:33:22.405Z,3.20
2023-03-17T01:36:23.293Z,3.30
2023-03-17T01:39:24.383Z,3.20
2023-03-17T01:42:26.189Z,3.30
2023-03-17T01:46:25.450Z,3.30
2023-03-17T01:49:37.535Z,3.20
2023-03-17T01:52:40.642Z,3.10
2023-03-17T01:55:45.683Z,3.00
2023-03-17T01:58:52.651Z,2.90
2023-03-17T02:02:05.345Z,3.00
2023-03-17T02:05:11.059Z,3.00
2023-03-17T02:08:15.372Z,2.90
2023-03-17T02:11:17.129Z,3.00
2023-03-17T02:14:18.046Z,2.90
2023-03-17T02:17:22.287Z,2.90
2023-03-17T02:20:23.083Z,2.90
2023-03-17T02:23:24.901Z,2.90
2023-03-17T02:26:28.572Z,2.80
2023-03-17T02:29:33.806Z,2.70
2023-03-17T02:32:37.018Z,2.70
2023-03-17T02:35:40.917Z,2.60
2023-03-17T02:38:42.450Z,2.50
2023-03-17T02:41:43.393Z,2.50
2023-03-17T02:44:45.156Z,2.40
2023-03-17T02:47:47.292Z,2.20
2023-03-17T02:50:48.275Z,2.20
2023-03-17T02:53:49.134Z,2.60
2023-03-17T02:56:50.862Z,3.10
2023-03-17T02:59:51.948Z,2.90
2023-03-17T03:02:52.933Z,2.20
2023-03-17T03:05:53.886Z,2.20
2023-03-17T03:08:54.989Z,2.20
2023-03-17T03:11:56.219Z,2.00
2023-03-17T03:14:56.932Z,1.90
2023-03-17T03:17:57.867Z,1.90
2023-03-17T03:20:58.589Z,1.90
2023-03-17T03:23:59.759Z,1.80
2023-03-17T03:27:01.075Z,1.70
2023-03-17T03:30:02.093Z,1.60
2023-03-17T03:33:04.436Z,1.50
2023-03-17T03:36:06.655Z,1.40
2023-03-17T03:39:08.889Z,1.40
2023-03-17T03:42:10.049Z,1.40
2023-03-17T03:45:11.126Z,1.40
2023-03-17T03:48:12.527Z,1.30
2023-03-17T03:51:13.864Z,1.30
2023-03-17T03:54:14.651Z,1.20
2023-03-17T03:57:15.934Z,1.10
2023-03-17T04:00:18.068Z,1.20
2023-03-17T04:03:19.443Z,1.20
2023-03-17T04:06:20.523Z,1.20
2023-03-17T04:09:21.574Z,1.20
2023-03-17T04:12:22.624Z,1.20
2023-03-17T04:15:24.371Z,1.10
2023-03-17T04:18:25.979Z,1.00
2023-03-17T04:21:26.820Z,1.00
2023-03-17T04:24:28.109Z,0.90
2023-03-17T04:27:29.120Z,0.80
2023-03-17T04:30:30.288Z,0.70
2023-03-17T04:33:31.766Z,1.00
2023-03-17T04:36:33.058Z,1.00
2023-03-17T04:39:34.175Z,1.10
2023-03-17T04:42:35.005Z,1.20
2023-03-17T04:45:36.793Z,1.20
2023-03-17T04:48:38.126Z,1.20
2023-03-17T04:51:39.140Z,1.30
2023-03-17T04:54:40.084Z,1.30
2023-03-17T04:57:41.120Z,1.30
2023-03-17T05:00:42.395Z,1.10
2023-03-17T05:03:43.334Z,0.90
2023-03-17T05:06:43.989Z,0.90
2023-03-17T05:09:44.734Z,1.30
2023-03-17T05:12:45.564Z,1.30
2023-03-17T05:15:52.920Z,1.20
2023-03-17T05:18:53.798Z,1.40
2023-03-17T05:21:54.644Z,1.40
2023-03-17T05:24:55.689Z,1.20
2023-03-17T05:27:56.581Z,0.90
2023-03-17T05:30:57.871Z,1.00
2023-03-17T05:33:58.948Z,1.10
2023-03-17T05:37:00.287Z,1.10
2023-03-17T05:40:01.401Z,1.10
2023-03-17T05:43:04.077Z,1.10
2023-03-17T05:46:06.121Z,1.20
2023-03-17T05:49:07.764Z,1.20
2023-03-17T05:52:08.951Z,1.20
2023-03-17T05:55:10.334Z,1.20
2023-03-17T05:58:11.549Z,1.10
2023-03-17T06:01:12.810Z,1.10
2023-03-17T06:04:13.878Z,1.10
2023-03-17T06:07:14.586Z,1.00
2023-03-17T06:10:15.839Z,1.10
2023-03-17T06:13:16.814Z,1.10
2023-03-17T06:16:18.153Z,1.20
2023-03-17T06:19:19.394Z,0.90
2023-03-17T06:22:20.831Z,0.90
2023-03-17T06:25:22.158Z,1.10
2023-03-17T06:28:24.269Z,1.10
2023-03-17T06:31:25.369Z,1.30
2023-03-17T06:34:26.471Z,1.50
2023-03-17T06:37:28.659Z,1.90
2023-03-17T06:40:30.027Z,2.00
2023-03-17T06:43:32.079Z,2.00
2023-03-17T06:46:33.930Z,2.10
2023-03-17T06:49:34.856Z,2.20
2023-03-17T06:52:36.956Z,2.30
2023-03-17T06:55:37.940Z,2.70
2023-03-17T06:58:40.003Z,3.00
2023-03-17T07:01:41.257Z,3.30
2023-03-17T07:04:42.535Z,3.60
2023-03-17T07:07:43.792Z,3.70
2023-03-17T07:10:45.982Z,3.90
2023-03-17T07:13:47.083Z,4.20
2023-03-17T07:16:48.673Z,4.60
2023-03-17T07:19:50.299Z,5.00
2023-03-17T07:22:51.705Z,5.10
2023-03-17T07:25:53.006Z,5.40
2023-03-17T07:28:53.951Z,5.50
2023-03-17T07:31:55.278Z,5.90
2023-03-17T07:34:56.334Z,5.90
2023-03-17T07:37:57.368Z,5.90
2023-03-17T07:40:58.190Z,6.20
2023-03-17T07:43:59.003Z,6.50
2023-03-17T07:46:59.759Z,6.60
2023-03-17T07:50:00.748Z,6.80
2023-03-17T07:53:01.861Z,6.80
2023-03-17T07:56:02.766Z,7.30
2023-03-17T07:59:03.797Z,7.70
2023-03-17T08:02:05.629Z,8.00
2023-03-17T08:05:07.912Z,8.00
2023-03-17T08:08:08.560Z,8.10
2023-03-17T08:11:10.199Z,8.40
2023-03-17T08:14:11.261Z,8.50
2023-03-17T08:17:12.514Z,8.50
2023-03-17T08:20:13.326Z,8.60
2023-03-17T08:23:14.432Z,8.80
2023-03-17T08:26:16.075Z,9.00
2023-03-17T08:29:16.896Z,8.90
2023-03-17T08:32:18.350Z,8.40
2023-03-17T08:35:19.798Z,9.20
2023-03-17T08:38:20.929Z,9.70
2023-03-17T08:41:25.217Z,9.40
2023-03-17T08:44:26.551Z,9.30
2023-03-17T08:47:27.528Z,10.00
2023-03-17T08:50:28.503Z,9.90
2023-03-17T08:53:30.139Z,9.20
2023-03-17T08:56:31.597Z,9.20
2023-03-17T08:59:33.747Z,9.30
2023-03-17T09:02:34.293Z,9.70
2023-03-17T09:05:38.464Z,10.80
2023-03-17T09:08:45.143Z,11.90
2023-03-17T09:11:46.056Z,11.90
2023-03-17T09:14:48.131Z,12.40
2023-03-17T09:17:50.180Z,12.60
2023-03-17T09:20:51.072Z,12.70
2023-03-17T09:23:52.339Z,12.10
2023-03-17T09:26:53.184Z,11.60
2023-03-17T09:29:54.358Z,11.50
2023-03-17T09:32:55.148Z,12.20
2023-03-17T09:35:59.072Z,12.30
2023-03-17T09:39:01.156Z,11.70
2023-03-17T09:43:04.816Z,11.70
2023-03-17T09:46:46.947Z,12.70
2023-03-17T09:50:00.275Z,13.20
2023-03-17T09:53:05.155Z,12.90
2023-03-17T09:56:13.495Z,13.00
2023-03-17T09:59:30.462Z,13.20
2023-03-17T10:02:34.610Z,13.80
2023-03-17T10:05:36.414Z,13.90
2023-03-17T10:08:48.854Z,14.10
2023-03-17T10:12:17.395Z,14.00
2023-03-17T10:15:25.602Z,14.40
2023-03-17T10:18:33.177Z,15.30
2023-03-17T10:21:41.675Z,15.30
2023-03-17T10:24:51.921Z,15.70
2023-03-17T10:28:08.778Z,15.30
2023-03-17T10:31:20.115Z,16.20
2023-03-17T10:34:32.394Z,17.20
2023-03-17T10:37:36.759Z,17.20
2023-03-17T10:40:37.623Z,17.00
2023-03-17T10:43:48.146Z,17.60
2023-03-17T10:46:57.223Z,17.50
2023-03-17T10:50:17.657Z,17.40
2023-03-17T10:53:28.592Z,17.40
2023-03-17T10:56:40.045Z,17.40
2023-03-17T10:59:53.969Z,16.50
2023-03-17T11:02:59.995Z,17.10
2023-03-17T11:06:09.058Z,17.00
2023-03-17T11:09:19.866Z,17.10
2023-03-17T11:12:50.595Z,17.60
2023-03-17T11:16:22.449Z,17.90
2023-03-17T11:19:37.039Z,17.80
2023-03-17T11:22:41.188Z,18.50
2023-03-17T11:25:49.820Z,18.50
2023-03-17T11:29:07.205Z,18.10
2023-03-17T11:32:22.892Z,17.60
2023-03-17T11:35:44.655Z,18.20
2023-03-17T11:39:12.834Z,18.50
2023-03-17T11:43:00.243Z,18.10
2023-03-17T11:46:31.152Z,18.60
2023-03-17T11:49:38.990Z,19.50
2023-03-17T11:53:20.698Z,19.60
2023-03-17T11:56:38.400Z,19.70
2023-03-17T11:59:47.646Z,20.10
2023-03-17T12:03:14.956Z,19.70
2023-03-17T12:06:21.064Z,19.90
2023-03-17T12:09:34.592Z,20.30
2023-03-17T12:12:46.670Z,18.90
2023-03-17T12:16:05.582Z,18.60
2023-03-17T12:19:33.737Z,18.70
2023-03-17T12:22:47.210Z,19.50
2023-03-17T12:26:12.548Z,19.20
2023-03-17T12:29:43.290Z,18.70
2023-03-17T12:33:32.827Z,18.60
2023-03-17T12:36:38.293Z,19.50
2023-03-17T12:39:58.807Z,21.90
2023-03-17T12:43:45.146Z,23.30
2023-03-17T12:47:48.852Z,22.20
2023-03-17T12:51:10.937Z,23.30
2023-03-17T12:54:28.326Z,22.20
2023-03-17T12:57:38.747Z,22.80
2023-03-17T13:00:59.320Z,26.20
2023-03-17T13:04:36.239Z,26.00
2023-03-17T13:07:52.867Z,25.40
2023-03-17T13:11:47.152Z,26.80
2023-03-17T13:14:52.165Z,25.10
2023-03-17T13:18:27.998Z,23.90
2023-03-17T13:21:32.899Z,24.20
2023-03-17T13:24:53.972Z,24.90
2023-03-17T13:28:12.394Z,26.00
2023-03-17T13:31:35.592Z,26.20
2023-03-17T13:35:16.100Z,27.00
2023-03-17T13:38:30.612Z,26.30
2023-03-17T13:42:11.994Z,24.60
2023-03-17T13:45:34.808Z,21.90
2023-03-17T13:48:38.108Z,20.00
2023-03-17T13:51:46.577Z,20.80
2023-03-17T13:55:02.024Z,20.60
2023-03-17T13:58:11.393Z,22.90
2023-03-17T14:01:15.034Z,23.00
2023-03-17T14:04:22.533Z,21.10
2023-03-17T14:07:29.780Z,21.40
2023-03-17T14:10:34.685Z,20.00
2023-03-17T14:14:32.243Z,21.40
2023-03-17T14:17:47.478Z,19.30
2023-03-17T14:20:57.888Z,18.50
2023-03-17T14:24:00.999Z,17.70
2023-03-17T14:27:09.247Z,17.50
2023-03-17T14:30:29.769Z,18.20
2023-03-17T14:33:40.941Z,17.50
2023-03-17T14:36:42.764Z,18.10
2023-03-17T14:39:52.769Z,18.80
2023-03-17T14:42:54.103Z,20.50
2023-03-17T14:46:23.765Z,20.60
2023-03-17T14:49:24.725Z,21.20
2023-03-17T14:52:28.764Z,21.40
2023-03-17T14:55:43.388Z,20.80
2023-03-17T14:58:48.704Z,20.00
2023-03-17T15:01:56.605Z,20.40
2023-03-17T15:04:59.987Z,21.20
2023-03-17T15:08:01.191Z,21.50
2023-03-17T15:11:05.791Z,20.20
2023-03-17T15:14:24.187Z,21.70
2023-03-17T15:17:35.665Z,23.20
2023-03-17T15:20:37.156Z,24.10
2023-03-17T15:23:41.361Z,24.60
2023-03-17T15:26:42.357Z,23.10
2023-03-17T15:29:43.554Z,22.40
2023-03-17T15:32:50.327Z,23.30
2023-03-17T15:35:51.279Z,22.80
2023-03-17T15:38:52.742Z,22.10
2023-03-17T15:41:53.775Z,21.70
2023-03-17T15:44:55.270Z,20.10
2023-03-17T15:47:57.168Z,20.20
2023-03-17T15:51:01.526Z,21.30
2023-03-17T15:54:02.674Z,22.50
2023-03-17T15:57:03.972Z,21.50
2023-03-17T16:00:05.765Z,20.10
2023-03-17T16:03:27.593Z,19.50
2023-03-17T16:06:28.447Z,18.10
2023-03-17T16:09:29.445Z,18.00
2023-03-17T16:12:30.050Z,17.00
2023-03-17T16:15:36.048Z,16.80
2023-03-17T16:18:38.415Z,16.60
2023-03-17T16:21:39.326Z,16.30
2023-03-17T16:24:40.627Z,16.00
2023-03-17T16:27:41.330Z,15.70
2023-03-17T16:30:43.434Z,15.60
2023-03-17T16:33:45.374Z,15.40
2023-03-17T16:36:47.061Z,15.10
2023-03-17T16:39:52.271Z,15.00
2023-03-17T16:42:54.857Z,14.90
2023-03-17T16:45:59.721Z,14.70
2023-03-17T16:49:02.018Z,14.60
2023-03-17T16:52:03.073Z,14.30
2023-03-17T16:55:04.022Z,14.10
2023-03-17T16:58:23.351Z,13.80
2023-03-17T17:01:28.081Z,13.70
2023-03-17T17:04:29.167Z,13.50
2023-03-17T17:07:30.329Z,13.60
2023-03-17T17:10:34.306Z,13.70
2023-03-17T17:13:35.755Z,13.40
2023-03-17T17:16:40.079Z,13.00
2023-03-17T17:19:40.791Z,12.70
2023-03-17T17:22:42.243Z,12.60
2023-03-17T17:25:43.706Z,12.50
2023-03-17T17:28:44.838Z,12.20
2023-03-17T17:31:46.026Z,11.90
2023-03-17T17:34:46.943Z,11.40
2023-03-17T17:37:48.205Z,11.10
2023-03-17T17:40:49.987Z,10.80
2023-03-17T17:43:51.265Z,10.60
2023-03-17T17:46:52.096Z,10.40
2023-03-17T17:49:53.222Z,10.40
2023-03-17T17:52:55.104Z,10.40
2023-03-17T17:55:57.779Z,10.40
2023-03-17T17:58:59.448Z,10.40
2023-03-17T18:02:01.237Z,10.30
2023-03-17T18:05:02.229Z,10.40
2023-03-17T18:08:04.184Z,10.50
2023-03-17T18:11:06.308Z,10.40
2023-03-17T18:14:09.668Z,10.50
2023-03-17T18:17:10.902Z,10.50
2023-03-17T18:20:14.727Z,10.30
2023-03-17T18:23:16.621Z,10.10
2023-03-17T18:26:18.474Z,9.90
2023-03-17T18:29:19.338Z,10.50
2023-03-17T18:32:20.282Z,10.70
2023-03-17T18:35:24.864Z,10.50
2023-03-17T18:38:26.207Z,10.40
2023-03-17T18:41:28.222Z,10.30
2023-03-17T18:44:29.298Z,10.40
2023-03-17T18:47:30.076Z,10.40
2023-03-17T18:50:31.518Z,10.40
2023-03-17T18:53:34.727Z,10.40
2023-03-17T18:56:35.833Z,10.40
2023-03-17T18:59:36.623Z,10.70
2023-03-17T19:02:38.904Z,10.60
2023-03-17T19:05:40.271Z,10.50
2023-03-17T19:08:41.551Z,10.50
2023-03-17T19:11:42.230Z,10.50
2023-03-17T19:14:43.107Z,10.60
2023-03-17T19:17:44.394Z,10.40
2023-03-17T19:20:45.231Z,10.40
2023-03-17T19:23:47.318Z,10.60
2023-03-17T19:26:48.292Z,10.50
2023-03-17T19:29:49.431Z,10.50
2023-03-17T19:32:50.190Z,10.40
2023-03-17T19:35:58.677Z,10.50
2023-03-17T19:38:59.677Z,10.70
2023-03-17T19:42:01.166Z,11.00
2023-03-17T19:45:03.390Z,10.80
2023-03-17T19:48:05.191Z,10.60
2023-03-17T19:51:06.919Z,10.50
2023-03-17T19:54:10.217Z,10.40
2023-03-17T19:57:14.806Z,10.30
2023-03-17T20:00:16.385Z,10.20
2023-03-17T20:03:17.035Z,10.40
2023-03-17T20:06:17.996Z,10.50
2023-03-17T20:09:19.070Z,10.40
2023-03-17T20:12:21.159Z,10.40
2023-03-17T20:15:22.458Z,10.30
2023-03-17T20:18:23.559Z,10.30
2023-03-17T20:21:24.471Z,10.20
2023-03-17T20:24:27.123Z,10.30
2023-03-17T20:27:29.023Z,10.20
2023-03-17T20:30:30.023Z,10.00
2023-03-17T20:33:33.603Z,9.80
2023-03-17T20:36:34.862Z,9.80
2023-03-17T20:39:36.420Z,9.80
2023-03-17T20:42:37.623Z,9.80
2023-03-17T20:45:39.130Z,9.90
2023-03-17T20:48:40.209Z,10.10
2023-03-17T20:51:41.448Z,10.30
2023-03-17T20:54:42.901Z,10.10
2023-03-17T20:57:48.836Z,9.70
2023-03-17T21:00:50.636Z,9.60
2023-03-17T21:03:52.709Z,9.60
2023-03-17T21:06:53.745Z,9.50
2023-03-17T21:09:57.015Z,9.60
2023-03-17T21:12:57.928Z,9.90
2023-03-17T21:16:01.588Z,10.00
2023-03-17T21:19:03.076Z,9.90
2023-03-17T21:22:04.802Z,10.00
2023-03-17T21:25:08.512Z,10.20
2023-03-17T21:28:10.112Z,10.20
2023-03-17T21:31:13.927Z,10.10
2023-03-17T21:34:15.060Z,10.10
2023-03-17T21:37:18.436Z,10.20
2023-03-17T21:40:19.982Z,9.90
2023-03-17T21:43:22.891Z,9.90
2023-03-17T21:46:25.574Z,10.00
2023-03-17T21:49:26.567Z,10.10
2023-03-17T21:52:27.998Z,10.20
2023-03-17T21:55:28.829Z,10.30
2023-03-17T21:58:29.774Z,10.40
2023-03-17T22:01:30.468Z,10.20
2023-03-17T22:04:31.942Z,10.10
2023-03-17T22:07:33.122Z,9.90
2023-03-17T22:10:34.453Z,9.70
2023-03-17T22:13:36.381Z,10.20
2023-03-17T22:16:37.475Z,10.10
2023-03-17T22:19:40.251Z,9.90
2023-03-17T22:22:41.477Z,9.40
2023-03-17T22:25:42.418Z,9.40
2023-03-17T22:28:45.828Z,9.70
2023-03-17T22:31:47.307Z,9.80
2023-03-17T22:34:48.435Z,10.20
2023-03-17T22:37:49.690Z,10.20
2023-03-17T22:41:06.513Z,10.10
2023-03-17T22:44:10.180Z,9.70
2023-03-17T22:47:11.694Z,8.80
2023-03-17T22:50:12.726Z,8.70
2023-03-17T22:53:13.764Z,8.50
2023-03-17T22:56:17.142Z,8.50
2023-03-17T22:59:17.960Z,8.60
2023-03-17T23:02:18.942Z,8.80
2023-03-17T23:05:20.451Z,9.20
2023-03-17T23:08:21.832Z,9.10
2023-03-17T23:11:26.137Z,8.70
2023-03-17T23:14:27.283Z,8.50
2023-03-17T23:17:28.715Z,8.40
2023-03-17T23:20:30.692Z,8.30
2023-03-17T23:23:32.372Z,8.10
2023-03-17T23:26:36.058Z,7.90
2023-03-17T23:29:37.071Z,7.60
2023-03-17T23:32:38.337Z,7.40
2023-03-17T23:35:39.737Z,7.40
2023-03-17T23:38:42.829Z,7.20
2023-03-17T23:41:45.136Z,7.20
2023-03-17T23:44:46.170Z,7.20
2023-03-17T23:47:50.030Z,7.20
2023-03-17T23:50:53.015Z,7.10
2023-03-17T23:53:54.494Z,7.10
2023-03-17T23:56:56.210Z,7.20
2023-03-17T23:59:57.371Z,7.40
